Time;durP1;ratioP1;P1;durP2;ratioP2;P2;SDS_P1;SDS_P2;PMS_P1;PMS_P2;Temp;Humidity;BMP_temperature;BMP_pressure;BME280_temperature;BME280_humidity;BME280_pressure;Samples;Min_cycle;Max_cycle;Signal;HPM_P1;HPM_P2
2024/03/15 00:00:14;;;;;;;3.65;1.20;;;19.10;35.10;;;;;;5119326;28;20094;-48
2024/03/15 00:02:40;;;;;;;1.88;0.60;;;19.00;34.60;;;;;;5132421;27;20064;-48
2024/03/15 00:05:09;;;;;;;3.65;1.02;;;19.10;34.80;;;;;;5132357;27;20071;-48
2024/03/15 00:07:36;;;;;;;4.68;0.80;;;19.20;34.90;;;;;;5132486;27;20385;-49
2024/03/15 00:10:02;;;;;;;2.50;0.68;;;19.40;34.70;;;;;;5120974;27;20068;-46
2024/03/15 00:12:29;;;;;;;7.88;1.00;;;19.50;34.50;;;;;;5101775;28;20103;-47
2024/03/15 00:14:55;;;;;;;6.30;1.27;;;19.50;34.30;;;;;;5116290;28;20588;-48
2024/03/15 00:17:22;;;;;;;3.00;1.15;;;19.70;34.30;;;;;;5115423;28;20537;-45
2024/03/15 00:19:48;;;;;;;9.75;0.98;;;19.90;34.40;;;;;;5099268;27;20090;-50
2024/03/15 00:22:15;;;;;;;2.95;0.75;;;19.80;34.20;;;;;;5124889;27;20100;-46
2024/03/15 00:24:41;;;;;;;9.05;1.17;;;19.70;34.50;;;;;;5110414;27;20133;-49
2024/03/15 00:27:08;;;;;;;11.77;1.08;;;19.50;33.80;;;;;;5099765;28;20155;-47
2024/03/15 00:29:36;;;;;;;2.08;0.80;;;19.50;33.80;;;;;;5113750;27;20095;-50
2024/03/15 00:32:03;;;;;;;3.33;0.82;;;19.20;33.90;;;;;;5112691;27;20095;-47
2024/03/15 00:34:30;;;;;;;5.50;0.70;;;19.30;34.50;;;;;;5113968;27;20124;-47
2024/03/15 00:36:57;;;;;;;12.48;1.75;;;19.00;34.30;;;;;;5113974;27;20151;-48
2024/03/15 00:39:23;;;;;;;5.78;0.75;;;18.90;35.00;;;;;;5112708;27;20077;-48
2024/03/15 00:41:49;;;;;;;11.90;0.90;;;18.80;35.40;;;;;;5106925;27;20079;-45
2024/03/15 00:44:16;;;;;;;6.15;2.83;;;18.80;36.00;;;;;;5117821;27;20072;-47
2024/03/15 00:46:42;;;;;;;26.40;18.38;;;18.70;35.70;;;;;;5111445;28;20079;-46
2024/03/15 00:49:10;;;;;;;11.35;6.80;;;18.60;35.80;;;;;;5106573;27;20088;-46
2024/03/15 00:51:37;;;;;;;7.53;1.20;;;18.60;36.00;;;;;;5116752;27;20104;-47
2024/03/15 00:54:04;;;;;;;7.18;4.82;;;18.40;36.60;;;;;;5118737;27;20159;-46
2024/03/15 00:56:31;;;;;;;7.78;1.00;;;18.30;37.10;;;;;;5114746;28;20060;-48
2024/03/15 00:58:57;;;;;;;5.03;0.98;;;18.30;37.20;;;;;;5102882;27;20100;-47
2024/03/15 01:01:23;;;;;;;2.35;0.80;;;18.10;37.30;;;;;;5132499;27;20072;-48
2024/03/15 01:03:50;;;;;;;12.90;1.67;;;18.10;37.80;;;;;;5135264;27;20068;-47
2024/03/15 01:06:16;;;;;;;5.93;0.90;;;18.10;37.50;;;;;;5094166;27;20069;-48
2024/03/15 01:08:43;;;;;;;4.40;1.15;;;18.10;37.20;;;;;;5095012;28;20118;-46
2024/03/15 01:11:09;;;;;;;3.90;0.90;;;18.00;37.50;;;;;;5094315;28;20096;-46
2024/03/15 01:13:35;;;;;;;6.03;0.80;;;17.90;37.70;;;;;;5094087;28;20096;-46
2024/03/15 01:16:02;;;;;;;5.50;0.80;;;17.80;37.80;;;;;;5094338;28;20060;-47
2024/03/15 01:18:34;;;;;;;5.63;1.25;;;17.70;38.30;;;;;;5114462;28;20221;-50
2024/03/15 01:21:01;;;;;;;7.38;1.20;;;17.70;39.00;;;;;;5114518;28;20410;-47
2024/03/15 01:23:28;;;;;;;5.93;0.90;;;17.70;39.10;;;;;;5114081;28;20072;-46
2024/03/15 01:25:56;;;;;;;4.93;0.80;;;17.60;38.80;;;;;;5112924;28;20464;-48
2024/03/15 01:28:23;;;;;;;5.72;0.80;;;17.60;39.30;;;;;;5103161;28;20080;-50
2024/03/15 01:30:49;;;;;;;5.78;1.10;;;17.70;39.60;;;;;;5113247;28;20417;-47
2024/03/15 01:33:16;;;;;;;6.30;1.50;;;17.70;39.60;;;;;;5114419;28;20128;-49
2024/03/15 01:35:43;;;;;;;7.85;1.40;;;17.70;39.90;;;;;;5114375;28;20063;-51
2024/03/15 01:38:09;;;;;;;11.90;3.35;;;17.60;40.10;;;;;;5113077;28;20064;-47
2024/03/15 01:40:36;;;;;;;4.57;1.42;;;17.60;40.10;;;;;;5114061;28;20064;-47
2024/03/15 01:43:03;;;;;;;6.13;0.90;;;17.60;39.90;;;;;;5114217;28;20060;-50
2024/03/15 01:45:29;;;;;;;5.05;1.10;;;17.50;39.90;;;;;;5115113;28;20145;-49
2024/03/15 01:47:57;;;;;;;8.38;0.90;;;17.50;39.90;;;;;;5114592;28;20068;-50
2024/03/15 01:50:24;;;;;;;5.47;0.60;;;17.60;39.70;;;;;;5114218;28;20067;-50
2024/03/15 01:52:52;;;;;;;6.20;1.00;;;17.60;39.60;;;;;;5114403;28;20164;-50
2024/03/15 01:55:18;;;;;;;6.75;1.00;;;17.60;39.00;;;;;;5114328;28;20064;-50
2024/03/15 01:57:45;;;;;;;8.65;4.80;;;17.60;39.20;;;;;;5114097;28;20070;-47
2024/03/15 02:00:13;;;;;;;3.90;0.85;;;17.60;38.80;;;;;;5113966;28;20060;-47
2024/03/15 02:02:43;;;;;;;5.90;0.90;;;17.50;39.40;;;;;;5113888;28;20079;-48
2024/03/15 02:05:15;;;;;;;12.20;1.27;;;17.50;39.30;;;;;;5113480;28;20075;-48
2024/03/15 02:07:41;;;;;;;5.53;1.10;;;17.50;39.20;;;;;;5113508;28;20082;-47
2024/03/15 02:10:13;;;;;;;3.85;0.73;;;17.50;39.10;;;;;;5114293;27;20096;-49
2024/03/15 02:12:40;;;;;;;5.20;0.85;;;17.50;39.20;;;;;;5113516;28;20158;-48
2024/03/15 02:15:07;;;;;;;1.63;0.75;;;17.50;39.70;;;;;;5113043;28;20060;-46
2024/03/15 02:17:36;;;;;;;4.60;1.15;;;17.50;40.10;;;;;;5113313;28;20095;-45
2024/03/15 02:20:06;;;;;;;10.00;1.55;;;17.50;39.60;;;;;;5113058;27;20068;-47
2024/03/15 02:22:33;;;;;;;5.13;1.00;;;17.50;39.90;;;;;;5113273;28;20064;-50
2024/03/15 02:24:59;;;;;;;5.65;1.75;;;17.50;40.30;;;;;;5111788;28;20072;-49
2024/03/15 02:27:28;;;;;;;6.38;1.17;;;17.50;39.40;;;;;;5113212;28;20080;-46
2024/03/15 02:29:55;;;;;;;10.27;3.28;;;17.40;39.30;;;;;;5113219;28;20076;-46
2024/03/15 02:32:24;;;;;;;8.55;4.97;;;17.40;39.20;;;;;;5112770;28;20525;-48
2024/03/15 02:34:51;;;;;;;15.90;9.95;;;17.50;39.20;;;;;;5112671;28;20510;-49
2024/03/15 02:37:18;;;;;;;9.75;1.02;;;17.50;38.90;;;;;;5112626;27;20129;-47
2024/03/15 02:39:46;;;;;;;5.18;1.00;;;17.40;38.90;;;;;;5112883;28;20559;-50
2024/03/15 02:42:12;;;;;;;5.03;1.30;;;17.50;39.40;;;;;;5112900;28;20528;-47
2024/03/15 02:44:39;;;;;;;3.95;1.10;;;17.50;39.90;;;;;;5112880;28;20067;-46
2024/03/15 02:47:06;;;;;;;3.45;1.00;;;17.50;40.40;;;;;;5113027;28;20390;-48
2024/03/15 02:49:32;;;;;;;12.07;1.40;;;17.40;40.40;;;;;;5112780;28;20075;-47
2024/03/15 02:51:59;;;;;;;12.32;1.42;;;17.40;39.80;;;;;;5112404;28;20221;-47
2024/03/15 02:54:26;;;;;;;10.82;1.10;;;17.30;39.60;;;;;;5112666;28;20096;-48
2024/03/15 02:56:53;;;;;;;4.28;1.27;;;17.20;39.40;;;;;;5112322;28;20078;-47
2024/03/15 02:59:19;;;;;;;8.15;1.10;;;17.20;39.50;;;;;;5112731;28;20526;-46
2024/03/15 03:01:46;;;;;;;5.13;0.95;;;17.10;39.50;;;;;;5112153;28;20067;-47
2024/03/15 03:04:13;;;;;;;11.70;1.80;;;17.10;39.50;;;;;;5112351;28;20060;-49
2024/03/15 03:06:42;;;;;;;6.07;1.70;;;17.00;39.80;;;;;;5112139;28;20552;-48
2024/03/15 03:09:09;;;;;;;19.45;3.05;;;17.00;39.90;;;;;;5111049;28;20071;-51
2024/03/15 03:11:39;;;;;;;14.93;2.88;;;16.90;42.20;;;;;;5111158;28;20449;-49
2024/03/15 03:14:05;;;;;;;18.17;3.38;;;16.70;45.00;;;;;;5112547;28;20074;-48
2024/03/15 03:16:35;;;;;;;14.25;2.55;;;16.80;46.10;;;;;;5112226;28;20069;-49
2024/03/15 03:19:05;;;;;;;14.40;1.92;;;16.70;46.70;;;;;;5111278;28;20056;-49
2024/03/15 03:21:31;;;;;;;13.25;2.17;;;16.70;47.00;;;;;;5112386;28;20064;-50
2024/03/15 03:23:58;;;;;;;15.05;2.67;;;16.50;47.50;;;;;;5112111;28;20120;-47
2024/03/15 03:26:25;;;;;;;15.65;2.05;;;16.60;48.00;;;;;;5111801;28;20452;-48
2024/03/15 03:28:51;;;;;;;13.45;2.13;;;16.50;48.20;;;;;;5112283;28;20060;-47
2024/03/15 03:31:19;;;;;;;32.45;4.18;;;16.50;48.40;;;;;;5112266;28;20100;-50
2024/03/15 03:33:46;;;;;;;12.63;2.83;;;16.50;48.60;;;;;;5112043;28;20057;-52
2024/03/15 03:36:13;;;;;;;19.98;2.85;;;16.50;48.40;;;;;;5112229;28;20065;-48
2024/03/15 03:38:39;;;;;;;19.08;3.03;;;16.50;48.40;;;;;;5112128;28;20393;-47
2024/03/15 03:41:06;;;;;;;18.73;3.25;;;16.50;48.30;;;;;;5109533;28;20071;-46
2024/03/15 03:43:33;;;;;;;22.92;3.13;;;16.40;48.50;;;;;;5110627;28;20072;-48
2024/03/15 03:45:59;;;;;;;11.68;2.67;;;16.40;48.60;;;;;;5111961;28;20090;-50
2024/03/15 03:48:26;;;;;;;15.18;2.70;;;16.40;48.70;;;;;;5112083;28;20064;-50
2024/03/15 03:50:53;;;;;;;15.13;2.88;;;16.50;48.90;;;;;;5111674;28;20400;-48
2024/03/15 03:53:20;;;;;;;16.63;2.38;;;16.50;48.60;;;;;;5103262;28;20075;-56
2024/03/15 03:55:46;;;;;;;23.23;2.83;;;16.50;48.80;;;;;;5095840;28;20118;-51
2024/03/15 03:58:13;;;;;;;19.00;5.38;;;16.60;48.50;;;;;;5102196;27;20067;-49
2024/03/15 04:00:40;;;;;;;21.30;2.92;;;16.60;48.40;;;;;;5136731;27;20122;-49
2024/03/15 04:03:06;;;;;;;29.50;5.60;;;16.40;48.80;;;;;;5136435;27;20059;-49
2024/03/15 04:05:33;;;;;;;21.88;5.72;;;16.30;50.20;;;;;;5136412;27;20451;-48
2024/03/15 04:08:02;;;;;;;24.45;6.10;;;16.20;51.40;;;;;;5136316;27;20066;-47
2024/03/15 04:10:30;;;;;;;20.58;5.30;;;16.10;52.00;;;;;;5136151;27;20471;-46
2024/03/15 04:12:57;;;;;;;21.70;5.82;;;16.10;52.70;;;;;;5135941;27;20088;-49
2024/03/15 04:15:23;;;;;;;23.20;4.78;;;16.00;53.70;;;;;;5136251;27;20072;-49
2024/03/15 04:17:50;;;;;;;17.90;3.40;;;15.90;54.40;;;;;;5135988;27;20067;-49
2024/03/15 04:20:16;;;;;;;16.10;3.25;;;15.90;54.50;;;;;;5136403;27;20063;-48
2024/03/15 04:22:43;;;;;;;16.73;1.95;;;16.00;54.60;;;;;;5135938;27;20063;-50
2024/03/15 04:25:10;;;;;;;10.45;1.60;;;16.00;55.10;;;;;;5134470;27;20462;-49
2024/03/15 04:27:36;;;;;;;17.63;2.45;;;15.90;55.50;;;;;;5136319;27;20425;-51
2024/03/15 04:30:13;;;;;;;10.23;2.10;;;15.90;55.90;;;;;;5134689;27;20076;-53
2024/03/15 04:32:41;;;;;;;10.48;1.67;;;15.90;55.80;;;;;;5135916;27;20528;-49
2024/03/15 04:35:07;;;;;;;23.60;2.42;;;15.90;55.70;;;;;;5110360;27;20071;-53
2024/03/15 04:37:37;;;;;;;14.27;1.88;;;15.90;55.40;;;;;;5118806;27;20095;-49
2024/03/15 04:40:06;;;;;;;9.68;1.63;;;15.90;55.30;;;;;;5108398;27;20141;-49
2024/03/15 04:42:34;;;;;;;14.70;1.95;;;15.90;55.20;;;;;;5105445;27;20102;-53
2024/03/15 04:45:04;;;;;;;11.00;1.80;;;15.90;55.20;;;;;;5121855;27;20081;-54
2024/03/15 04:47:31;;;;;;;22.63;2.47;;;15.90;54.90;;;;;;5128963;27;20072;-55
2024/03/15 04:49:57;;;;;;;12.95;1.75;;;15.90;54.90;;;;;;5121849;27;20079;-49
2024/03/15 04:52:24;;;;;;;23.70;2.00;;;16.00;54.40;;;;;;5116460;27;20104;-49
2024/03/15 04:54:50;;;;;;;33.53;2.30;;;16.00;54.10;;;;;;5114045;27;20083;-52
2024/03/15 04:57:18;;;;;;;14.40;2.22;;;16.00;53.70;;;;;;5123259;27;20514;-49
2024/03/15 04:59:45;;;;;;;19.20;2.95;;;16.00;53.60;;;;;;5125609;27;20067;-50
2024/03/15 05:02:14;;;;;;;19.08;3.33;;;16.10;53.70;;;;;;5121519;27;20080;-51
2024/03/15 05:04:41;;;;;;;13.80;2.25;;;16.50;53.20;;;;;;5106015;27;20076;-49
2024/03/15 05:07:07;;;;;;;17.48;2.85;;;17.00;52.30;;;;;;5114559;28;20111;-53
2024/03/15 05:09:36;;;;;;;13.50;2.67;;;17.60;51.30;;;;;;5105103;27;20086;-53
2024/03/15 05:12:03;;;;;;;18.63;2.53;;;17.60;50.80;;;;;;5120652;27;20198;-50
2024/03/15 05:14:30;;;;;;;16.92;3.08;;;18.10;50.70;;;;;;5109740;27;20073;-59
2024/03/15 05:16:57;;;;;;;15.52;2.53;;;18.40;49.00;;;;;;5094015;28;20466;-50
2024/03/15 05:19:24;;;;;;;18.00;4.40;;;18.50;49.10;;;;;;5107355;27;20094;-48
2024/03/15 05:21:50;;;;;;;16.75;2.55;;;18.20;48.50;;;;;;5115298;27;20124;-51
2024/03/15 05:24:16;;;;;;;15.70;2.50;;;17.90;48.90;;;;;;5107865;27;20071;-49
2024/03/15 05:26:43;;;;;;;10.52;2.17;;;17.90;49.00;;;;;;5105629;27;20190;-52
2024/03/15 05:29:10;;;;;;;13.30;2.00;;;17.90;49.60;;;;;;5105856;27;20543;-49
2024/03/15 05:31:36;;;;;;;13.48;1.73;;;18.00;49.10;;;;;;5118809;27;20087;-50
2024/03/15 05:34:07;;;;;;;12.15;2.67;;;17.80;49.40;;;;;;5112189;27;20076;-52
2024/03/15 05:36:35;;;;;;;10.75;2.50;;;17.50;50.00;;;;;;5121358;27;20072;-50
2024/03/15 05:39:01;;;;;;;7.88;2.42;;;17.60;49.90;;;;;;5115880;27;20116;-50
2024/03/15 05:41:28;;;;;;;15.88;2.63;;;17.60;50.00;;;;;;5116785;27;20125;-50
2024/03/15 05:43:55;;;;;;;14.77;2.25;;;17.40;50.10;;;;;;5111418;27;20064;-49
2024/03/15 05:46:21;;;;;;;15.75;2.63;;;17.50;50.00;;;;;;5117078;27;20076;-49
2024/03/15 05:48:48;;;;;;;14.25;2.63;;;17.20;50.90;;;;;;5109453;27;20072;-50
2024/03/15 05:51:14;;;;;;;23.20;11.77;;;17.10;52.60;;;;;;5104773;28;20095;-50
2024/03/15 05:53:41;;;;;;;19.08;8.00;;;17.00;53.90;;;;;;5112900;27;20157;-50
2024/03/15 05:56:08;;;;;;;32.28;16.02;;;17.00;54.80;;;;;;5104028;27;20075;-52
2024/03/15 05:58:34;;;;;;;22.98;14.98;;;17.20;54.60;;;;;;5111294;27;20060;-57
2024/03/15 06:01:01;;;;;;;13.82;5.32;;;17.40;54.20;;;;;;5104981;27;20072;-54
2024/03/15 06:03:27;;;;;;;18.05;2.35;;;17.40;54.30;;;;;;5111418;27;20068;-52
2024/03/15 06:05:54;;;;;;;15.98;2.50;;;17.40;54.20;;;;;;5101934;27;20201;-50
2024/03/15 06:08:21;;;;;;;15.23;2.45;;;17.20;54.30;;;;;;5108569;27;20080;-54
2024/03/15 06:10:47;;;;;;;18.42;2.55;;;17.00;54.70;;;;;;5113363;27;20145;-51
2024/03/15 06:13:14;;;;;;;19.38;2.50;;;16.80;55.50;;;;;;5110518;27;20064;-57
2024/03/15 06:15:43;;;;;;;21.27;2.70;;;16.60;55.80;;;;;;5114702;27;20175;-52
2024/03/15 06:18:09;;;;;;;15.05;2.40;;;16.40;55.90;;;;;;5112873;27;20066;-50
2024/03/15 06:20:36;;;;;;;20.55;2.45;;;16.50;56.10;;;;;;5106710;27;20076;-53
2024/03/15 06:23:03;;;;;;;18.38;2.72;;;16.50;55.80;;;;;;5118731;27;20072;-50
2024/03/15 06:25:30;;;;;;;16.10;3.00;;;16.30;55.80;;;;;;5110824;27;20080;-52
2024/03/15 06:27:59;;;;;;;38.40;17.98;;;16.50;56.00;;;;;;5122579;27;20100;-53
2024/03/15 06:30:25;;;;;;;21.40;3.20;;;16.40;55.30;;;;;;5115796;27;20073;-52
2024/03/15 06:32:57;;;;;;;21.08;2.20;;;16.60;55.40;;;;;;5098046;27;20116;-54
2024/03/15 06:35:27;;;;;;;16.00;2.05;;;16.50;55.40;;;;;;5117818;27;20080;-52
2024/03/15 06:38:07;;;;;;;15.88;2.15;;;16.70;55.00;;;;;;5103638;27;20510;-50
2024/03/15 06:40:45;;;;;;;12.55;1.80;;;16.70;55.40;;;;;;5099586;27;20103;-55
2024/03/15 06:43:25;;;;;;;11.10;2.53;;;16.70;55.30;;;;;;5107921;27;20514;-57
2024/03/15 06:45:52;;;;;;;13.35;2.17;;;16.60;55.60;;;;;;5111497;27;20068;-49
2024/03/15 06:48:33;;;;;;;10.32;2.55;;;16.70;55.30;;;;;;5119922;27;20509;-48
2024/03/15 06:53:50;;;;;;;8.95;1.80;;;16.30;55.40;;;;;;5101870;27;20099;-50
2024/03/15 06:56:17;;;;;;;8.57;1.60;;;16.50;55.50;;;;;;5117687;27;20079;-59
2024/03/15 06:58:43;;;;;;;11.35;1.35;;;16.10;55.40;;;;;;5109412;27;20083;-52
2024/03/15 07:01:11;;;;;;;13.60;1.60;;;16.10;55.60;;;;;;5098520;27;20079;-48
2024/03/15 07:03:38;;;;;;;8.73;1.70;;;16.20;55.20;;;;;;5110956;27;20074;-51
2024/03/15 07:06:05;;;;;;;12.38;1.92;;;16.20;55.30;;;;;;5109990;27;20072;-52
2024/03/15 07:08:34;;;;;;;12.75;1.70;;;16.40;55.20;;;;;;5111897;27;20070;-48
2024/03/15 07:11:01;;;;;;;5.20;1.50;;;16.20;54.90;;;;;;5105987;27;20072;-51
2024/03/15 07:13:27;;;;;;;12.43;1.73;;;16.20;55.20;;;;;;5107771;27;20072;-49
2024/03/15 07:15:53;;;;;;;5.95;1.52;;;16.10;55.20;;;;;;5110404;27;20068;-52
2024/03/15 07:18:20;;;;;;;15.95;1.77;;;16.20;55.30;;;;;;5099347;27;20075;-50
2024/03/15 07:20:46;;;;;;;5.57;1.60;;;16.00;55.10;;;;;;5106473;27;20075;-50
2024/03/15 07:23:15;;;;;;;13.25;2.20;;;16.10;55.40;;;;;;5113452;27;20071;-52
2024/03/15 07:25:43;;;;;;;10.60;1.60;;;16.10;55.30;;;;;;5116241;27;20153;-50
2024/03/15 07:28:09;;;;;;;17.27;2.15;;;16.20;55.20;;;;;;5105523;27;20516;-52
2024/03/15 07:30:35;;;;;;;40.55;18.85;;;16.20;55.00;;;;;;5117539;27;20521;-52
2024/03/15 07:33:02;;;;;;;20.58;8.93;;;16.10;55.20;;;;;;5121176;27;20107;-50
2024/03/15 07:35:29;;;;;;;13.73;2.30;;;16.00;55.30;;;;;;5121091;27;20517;-51
2024/03/15 07:37:57;;;;;;;21.30;2.80;;;16.10;55.20;;;;;;5114993;27;20068;-52
2024/03/15 07:40:24;;;;;;;9.10;2.08;;;16.10;55.50;;;;;;5110682;27;20486;-49
2024/03/15 07:42:53;;;;;;;12.30;2.75;;;16.00;55.30;;;;;;5115234;28;20075;-50
2024/03/15 07:45:19;;;;;;;10.32;2.05;;;16.00;55.40;;;;;;5116398;28;20533;-52
2024/03/15 07:47:46;;;;;;;7.93;1.85;;;16.00;55.50;;;;;;5112168;27;20070;-50
2024/03/15 07:50:13;;;;;;;8.15;1.73;;;15.90;55.40;;;;;;5114441;27;20068;-48
2024/03/15 07:52:40;;;;;;;12.52;2.13;;;15.80;55.80;;;;;;5117058;28;20145;-50
2024/03/15 07:55:09;;;;;;;8.98;1.70;;;15.80;55.70;;;;;;5119701;27;20064;-50
2024/03/15 07:57:35;;;;;;;11.50;1.40;;;15.70;55.60;;;;;;5108175;27;20101;-51
2024/03/15 08:00:05;;;;;;;14.52;1.80;;;15.60;55.70;;;;;;5114728;28;20151;-53
2024/03/15 08:02:31;;;;;;;6.13;1.85;;;15.60;55.90;;;;;;5109910;28;20068;-51
2024/03/15 08:04:58;;;;;;;7.28;1.77;;;15.60;55.70;;;;;;5121529;28;20132;-53
2024/03/15 08:07:24;;;;;;;7.38;2.50;;;15.80;55.60;;;;;;5118651;27;20072;-50
2024/03/15 08:09:50;;;;;;;9.88;2.38;;;15.80;55.00;;;;;;5116712;28;20102;-50
2024/03/15 08:12:17;;;;;;;8.35;2.38;;;15.80;55.00;;;;;;5122309;28;20186;-50
2024/03/15 08:14:44;;;;;;;6.68;2.00;;;15.70;55.40;;;;;;5113131;27;20129;-51
2024/03/15 08:17:10;;;;;;;10.38;1.83;;;15.60;55.50;;;;;;5119155;28;20063;-51
2024/03/15 08:19:39;;;;;;;6.90;1.55;;;15.60;55.60;;;;;;5120857;27;20111;-52
2024/03/15 08:22:06;;;;;;;9.75;1.60;;;15.70;55.80;;;;;;5113321;28;20540;-50
2024/03/15 08:24:33;;;;;;;6.70;1.58;;;15.80;55.70;;;;;;5109601;27;20063;-48
2024/03/15 08:26:59;;;;;;;9.95;1.77;;;15.80;55.80;;;;;;5118831;27;20107;-51
2024/03/15 08:29:26;;;;;;;5.10;1.25;;;15.80;56.00;;;;;;5116513;28;20087;-51
2024/03/15 08:31:52;;;;;;;12.13;1.95;;;15.70;56.00;;;;;;5110308;28;20127;-48
2024/03/15 08:34:21;;;;;;;13.40;1.38;;;15.70;56.10;;;;;;5100148;28;20080;-48
2024/03/15 08:36:48;;;;;;;12.18;1.85;;;15.80;56.20;;;;;;5114222;27;20471;-49
2024/03/15 08:39:15;;;;;;;6.22;1.80;;;15.90;56.20;;;;;;5114575;27;20750;-52
2024/03/15 08:41:44;;;;;;;17.77;1.65;;;15.90;56.00;;;;;;5128357;27;20492;-49
2024/03/15 08:44:14;;;;;;;8.35;1.65;;;15.80;56.20;;;;;;5117731;27;20441;-50
2024/03/15 08:46:40;;;;;;;13.57;1.60;;;15.70;56.60;;;;;;5108405;27;20077;-49
2024/03/15 08:49:06;;;;;;;7.72;1.65;;;15.60;56.70;;;;;;5115975;27;20069;-51
2024/03/15 08:51:33;;;;;;;5.75;1.40;;;15.60;56.70;;;;;;5117600;27;20470;-49
2024/03/15 08:53:59;;;;;;;11.38;1.63;;;15.60;56.90;;;;;;5121071;27;20070;-52
2024/03/15 08:56:26;;;;;;;7.78;1.55;;;15.60;56.80;;;;;;5126740;27;20106;-55
2024/03/15 08:58:53;;;;;;;10.05;1.40;;;15.60;56.80;;;;;;5119474;27;20075;-49
2024/03/15 09:01:24;;;;;;;13.50;1.90;;;15.60;56.80;;;;;;5125005;27;20063;-49
2024/03/15 09:03:50;;;;;;;16.10;1.45;;;15.60;57.00;;;;;;5127469;27;20478;-49
2024/03/15 09:06:17;;;;;;;9.73;1.50;;;15.60;56.80;;;;;;5122363;27;20733;-52
2024/03/15 09:08:54;;;;;;;3.55;1.05;;;15.70;57.00;;;;;;5115020;27;20079;-51
2024/03/15 09:11:22;;;;;;;6.15;1.40;;;15.70;57.00;;;;;;5115377;27;20144;-50
2024/03/15 09:13:53;;;;;;;13.77;1.67;;;15.60;56.90;;;;;;5111548;27;20068;-52
2024/03/15 09:16:21;;;;;;;11.15;1.40;;;15.60;57.00;;;;;;5119786;27;20072;-50
2024/03/15 09:18:48;;;;;;;11.02;1.50;;;15.50;57.30;;;;;;5126175;27;20068;-51
2024/03/15 09:21:14;;;;;;;8.68;1.63;;;15.70;57.40;;;;;;5129547;27;20078;-52
2024/03/15 09:23:41;;;;;;;6.90;1.25;;;15.70;57.50;;;;;;5109799;27;20494;-49
2024/03/15 09:26:08;;;;;;;9.88;1.42;;;15.70;57.80;;;;;;5123606;27;20068;-51
2024/03/15 09:28:37;;;;;;;6.25;1.42;;;15.70;58.10;;;;;;5115814;27;20072;-51
2024/03/15 09:31:08;;;;;;;5.72;1.30;;;15.50;58.70;;;;;;5123074;27;20067;-53
2024/03/15 09:33:35;;;;;;;9.20;1.30;;;15.40;59.30;;;;;;5111541;27;20067;-51
2024/03/15 09:36:06;;;;;;;4.75;1.10;;;15.40;59.90;;;;;;5107038;27;20072;-56
2024/03/15 09:38:32;;;;;;;7.68;1.17;;;15.50;59.80;;;;;;5115210;27;20075;-52
2024/03/15 09:40:59;;;;;;;8.88;1.17;;;15.50;59.40;;;;;;5118778;27;20068;-51
2024/03/15 09:43:27;;;;;;;4.25;1.13;;;15.40;59.10;;;;;;5113187;27;20095;-49
2024/03/15 09:45:54;;;;;;;8.52;1.40;;;15.40;59.30;;;;;;5114811;27;20072;-50
2024/03/15 09:48:24;;;;;;;6.75;1.20;;;15.50;59.00;;;;;;5115030;27;20126;-51
2024/03/15 09:50:54;;;;;;;6.03;1.20;;;15.40;58.70;;;;;;5124447;27;20161;-51
2024/03/15 09:53:20;;;;;;;4.32;1.00;;;15.40;58.90;;;;;;5121973;27;20530;-49
2024/03/15 09:55:52;;;;;;;10.57;1.23;;;15.50;58.90;;;;;;5110781;27;20407;-50
2024/03/15 09:58:21;;;;;;;3.22;1.05;;;15.50;58.70;;;;;;5122690;27;20144;-56
2024/03/15 10:00:48;;;;;;;8.15;1.30;;;15.50;58.80;;;;;;5118889;27;20117;-50
2024/03/15 10:03:16;;;;;;;9.77;1.20;;;15.40;59.00;;;;;;5107648;27;20078;-51
2024/03/15 10:05:42;;;;;;;9.38;1.30;;;15.40;59.20;;;;;;5113047;27;20425;-49
2024/03/15 10:08:10;;;;;;;3.47;1.13;;;15.50;59.10;;;;;;5120787;27;20068;-51
2024/03/15 10:10:44;;;;;;;3.83;1.27;;;15.30;59.20;;;;;;5119170;27;20079;-49
2024/03/15 10:13:13;;;;;;;9.38;1.63;;;15.30;59.50;;;;;;5106416;27;20706;-49
2024/03/15 10:15:46;;;;;;;6.53;1.40;;;15.30;59.60;;;;;;5117691;27;20063;-49
2024/03/15 10:18:14;;;;;;;7.18;1.80;;;15.30;59.50;;;;;;5111815;27;20064;-49
2024/03/15 10:20:40;;;;;;;11.05;1.75;;;15.30;59.40;;;;;;5113929;27;20068;-48
2024/03/15 10:23:10;;;;;;;4.70;1.42;;;15.40;59.40;;;;;;5116029;27;20064;-53
2024/03/15 10:25:36;;;;;;;3.80;1.15;;;15.30;59.20;;;;;;5119813;27;20067;-51
2024/03/15 10:28:03;;;;;;;2.83;0.93;;;15.40;59.20;;;;;;5123190;27;20102;-51
2024/03/15 10:30:30;;;;;;;4.50;0.82;;;15.40;59.60;;;;;;5117030;27;20077;-52
2024/03/15 10:33:03;;;;;;;4.53;0.98;;;15.40;59.50;;;;;;5110650;27;20103;-53
2024/03/15 10:35:30;;;;;;;2.30;0.90;;;15.50;59.50;;;;;;5115293;27;20102;-49
2024/03/15 10:37:58;;;;;;;9.25;1.00;;;15.50;61.60;;;;;;5112678;27;20074;-49
2024/03/15 10:40:27;;;;;;;2.35;0.70;;;15.40;66.30;;;;;;5118062;27;20099;-49
2024/03/15 10:43:00;;;;;;;9.70;1.80;;;15.10;69.50;;;;;;5122526;27;20414;-49
2024/03/15 10:45:27;;;;;;;32.25;2.20;;;14.80;72.50;;;;;;5118628;27;20087;-47
2024/03/15 10:47:55;;;;;;;15.85;2.60;;;14.30;73.60;;;;;;5111958;27;20072;-49
2024/03/15 10:50:29;;;;;;;11.05;2.95;;;14.00;78.80;;;;;;5116009;27;20518;-50
2024/03/15 10:52:56;;;;;;;14.38;3.35;;;13.70;83.50;;;;;;5123372;27;20182;-51
2024/03/15 10:55:25;;;;;;;15.00;4.13;;;13.50;88.20;;;;;;5116092;27;20272;-51
2024/03/15 10:57:55;;;;;;;19.60;4.82;;;13.50;90.10;;;;;;5104047;27;20182;-49
2024/03/15 11:00:27;;;;;;;17.40;3.42;;;13.50;92.40;;;;;;5114914;27;20472;-47
2024/03/15 11:02:55;;;;;;;8.48;2.72;;;13.40;93.80;;;;;;5111622;27;20482;-48
2024/03/15 11:05:24;;;;;;;9.88;3.15;;;13.20;95.30;;;;;;5110641;27;20106;-49
2024/03/15 11:08:21;;;;;;;12.30;3.25;;;13.00;96.40;;;;;;5117100;27;20069;-46
2024/03/15 11:10:55;;;;;;;12.70;3.45;;;12.80;98.30;;;;;;5100895;27;20076;-47
2024/03/15 11:13:25;;;;;;;10.45;3.20;;;12.80;99.90;;;;;;5116872;27;20110;-48
2024/03/15 11:15:58;;;;;;;7.35;2.40;;;12.80;99.90;;;;;;5115757;27;20127;-49
2024/03/15 11:18:33;;;;;;;8.13;2.33;;;12.90;99.90;;;;;;5109474;27;20079;-49
2024/03/15 11:21:00;;;;;;;10.52;3.05;;;13.00;99.90;;;;;;5106740;27;20525;-56
2024/03/15 11:23:26;;;;;;;;;;;13.00;99.90;;;;;;5126776;27;20068;-47
2024/03/15 11:25:59;;;;;;;13.52;2.92;;;12.80;99.90;;;;;;5121600;27;19959;-48
2024/03/15 11:28:30;;;;;;;13.50;2.85;;;12.80;99.90;;;;;;5120147;27;20131;-49
2024/03/15 11:30:57;;;;;;;6.60;2.65;;;12.70;99.90;;;;;;5115048;27;20084;-48
2024/03/15 11:33:31;;;;;;;7.70;2.92;;;12.90;99.90;;;;;;5117203;27;20160;-49
2024/03/15 11:35:58;;;;;;;7.10;2.42;;;12.90;99.90;;;;;;5112831;27;20159;-49
2024/03/15 11:38:27;;;;;;;7.22;2.08;;;13.00;99.90;;;;;;5118624;27;20199;-48
2024/03/15 11:40:56;;;;;;;4.30;2.00;;;13.20;99.90;;;;;;5115118;27;20083;-49
2024/03/15 11:43:22;;;;;;;7.85;2.00;;;13.20;99.90;;;;;;5109609;27;20072;-48
2024/03/15 11:45:49;;;;;;;5.53;2.20;;;13.10;99.90;;;;;;5122860;28;20067;-49
2024/03/15 11:48:18;;;;;;;5.97;2.10;;;13.10;99.90;;;;;;5109879;27;20063;-48
2024/03/15 11:50:46;;;;;;;6.70;2.58;;;13.20;99.90;;;;;;5113440;28;20068;-49
2024/03/15 11:53:13;;;;;;;8.23;2.60;;;13.30;99.90;;;;;;5114882;27;20094;-55
2024/03/15 11:55:43;;;;;;;7.18;2.15;;;13.30;99.90;;;;;;5116756;28;20448;-48
2024/03/15 11:58:20;;;;;;;9.02;2.78;;;13.30;99.90;;;;;;5106487;27;20075;-49
2024/03/15 12:00:49;;;;;;;5.97;2.22;;;13.40;99.90;;;;;;5138145;27;20067;-48
2024/03/15 12:03:17;;;;;;;10.80;2.33;;;13.30;99.90;;;;;;5118881;27;20072;-50
2024/03/15 12:05:44;;;;;;;5.68;2.38;;;13.30;99.80;;;;;;5138778;27;20466;-50
2024/03/15 12:08:15;;;;;;;7.57;2.20;;;13.20;99.90;;;;;;5120263;27;20095;-47
2024/03/15 12:10:44;;;;;;;6.70;2.50;;;13.20;99.90;;;;;;5115222;27;20071;-51
2024/03/15 12:13:17;;;;;;;9.20;2.70;;;13.10;99.90;;;;;;5110412;27;20145;-50
2024/03/15 12:15:48;;;;;;;18.27;5.38;;;13.10;99.90;;;;;;5118307;27;20113;-47
2024/03/15 12:18:19;;;;;;;18.35;5.18;;;13.20;99.40;;;;;;5124129;27;20082;-47
2024/03/15 12:20:48;;;;;;;15.73;5.10;;;13.10;98.70;;;;;;5119252;27;20076;-48
2024/03/15 12:23:20;;;;;;;14.00;4.80;;;13.20;98.40;;;;;;5122632;27;20075;-49
2024/03/15 12:25:48;;;;;;;14.50;4.65;;;13.20;97.70;;;;;;5105934;27;20068;-49
2024/03/15 12:28:17;;;;;;;10.65;3.40;;;13.20;97.70;;;;;;5122172;27;20116;-49
2024/03/15 12:30:49;;;;;;;7.35;2.63;;;13.10;97.60;;;;;;5116306;27;20092;-48
2024/03/15 12:33:15;;;;;;;8.35;2.13;;;13.20;98.00;;;;;;5112640;27;20096;-56
2024/03/15 12:35:43;;;;;;;5.30;1.90;;;13.10;98.00;;;;;;5124349;27;20091;-52
2024/03/15 12:38:18;;;;;;;7.50;2.28;;;13.20;98.30;;;;;;5121318;27;20060;-51
2024/03/15 12:40:44;;;;;;;9.32;2.10;;;13.10;98.50;;;;;;5114943;27;20381;-48
2024/03/15 12:43:14;;;;;;;9.88;2.10;;;13.00;98.80;;;;;;5114662;27;20107;-52
2024/03/15 12:45:41;;;;;;;5.53;1.65;;;13.00;99.40;;;;;;5120106;27;20467;-51